Archival Weather

Half Moon Bay

Half Moon Bay, California (KHAF)

Report from: Wednesday, December 6, 2023 2:15 PM PST
Current time: Saturday, February 24, 2024 6:46 AM PST

Current weather – Weather history – Daily summaries
Weather forecast

Present weatherMist
Temperature14.0°C (57.2°F)
Dew point14.0°C (57.2°F)
Winds 15 kts (7.7 m/s, 17.3 mph) South (180°)
Wind gusts 21 kts (10.8 m/s, 24.2 mph)
Visibility1.3 mi. (2 km)
Clouds Ceiling: Broken clouds 1,900 ft. (579 m)
Broken clouds 2,800 ft. (853 m)
Overcast 3,600 ft. (1,097 m)
Altimeter30.01 in.Hg (1016 mB)
Relative humidity100 %
Density altitude1 ft. (0 m)
Remarks Fully automated report
Automated weather observing station with precipitation discriminator
Flight conditions Instrument Meteorological Conditions
Raw dataKHAF 062215Z AUTO 18015G21KT 1 1/4SM BR BKN019 BKN028 OVC036 14/14 A3001 RMK AO2
An error has occurred. This application may no longer respond until reloaded. Reload 🗙